Terminal Aerodrome Forecast
Issued by NWS

Home | Current Version | Previous Version | Text Only | Print | Product List | Glossary On
Versions: 1 2 3 4 5 6 7 8 9 10 11 12 13
000
FTUS45 KABQ 281120
TAFGUP
TAF
KGUP 281120Z 2812/2912 VRB06KT P6SM FEW120
     FM281600 22006KT P6SM SKC
     FM282000 24010KT P6SM SCT120 SCT180
     FM290200 VRB05KT P6SM SCT120 SCT180=

USA.gov is the U.S. government's official web portal to all federal, state and local government web resources and services.